createdAt,value
2023-03-21T00:00:58.660Z,7.90
2023-03-21T00:03:26.087Z,7.90
2023-03-21T00:05:53.682Z,7.90
2023-03-21T00:08:21.127Z,7.90
2023-03-21T00:10:47.768Z,7.90
2023-03-21T00:13:15.319Z,7.90
2023-03-21T00:16:06.106Z,7.90
2023-03-21T00:18:36.765Z,7.90
2023-03-21T00:21:37.559Z,7.90
2023-03-21T00:23:51.793Z,7.90
2023-03-21T00:26:18.498Z,8.00
2023-03-21T00:28:45.204Z,8.00
2023-03-21T00:31:11.872Z,8.00
2023-03-21T00:33:41.691Z,8.00
2023-03-21T00:36:09.245Z,8.00
2023-03-21T00:38:36.752Z,7.90
2023-03-21T00:41:07.830Z,7.90
2023-03-21T00:43:41.742Z,7.90
2023-03-21T00:46:08.563Z,7.80
2023-03-21T00:48:35.867Z,7.90
2023-03-21T00:51:03.283Z,7.90
2023-03-21T00:53:31.183Z,7.90
2023-03-21T00:55:57.804Z,7.80
2023-03-21T00:58:24.441Z,7.80
2023-03-21T01:00:51.161Z,7.90
2023-03-21T01:03:24.912Z,7.80
2023-03-21T01:06:07.397Z,7.90
2023-03-21T01:08:51.864Z,7.90
2023-03-21T01:11:21.446Z,7.80
2023-03-21T01:13:54.850Z,7.80
2023-03-21T01:16:25.358Z,7.80
2023-03-21T01:18:52.045Z,7.70
2023-03-21T01:21:18.718Z,7.70
2023-03-21T01:23:46.220Z,7.90
2023-03-21T01:26:13.793Z,7.80
2023-03-21T01:28:41.614Z,7.70
2023-03-21T01:31:08.896Z,7.70
2023-03-21T01:33:36.191Z,7.80
2023-03-21T01:36:12.142Z,7.80
2023-03-21T01:38:39.659Z,7.70
2023-03-21T01:41:18.652Z,7.70
2023-03-21T01:43:46.039Z,7.70
2023-03-21T01:46:37.265Z,7.70
2023-03-21T01:49:13.055Z,7.70
2023-03-21T01:51:42.571Z,7.70
2023-03-21T01:54:11.740Z,7.70
2023-03-21T01:56:39.457Z,7.70
2023-03-21T01:59:13.829Z,7.70
2023-03-21T02:01:42.301Z,7.70
2023-03-21T02:04:09.595Z,7.80
2023-03-21T02:06:54.469Z,7.80
2023-03-21T02:09:23.996Z,7.80
2023-03-21T02:11:50.952Z,7.80
2023-03-21T02:14:28.848Z,7.70
2023-03-21T02:17:03.869Z,7.70
2023-03-21T02:19:35.646Z,7.70
2023-03-21T02:22:28.673Z,7.70
2023-03-21T02:25:22.485Z,7.80
2023-03-21T02:27:52.882Z,7.80
2023-03-21T02:30:29.484Z,7.80
2023-03-21T02:33:33.872Z,7.80
2023-03-21T02:36:14.396Z,7.80
2023-03-21T02:38:47.033Z,7.90
2023-03-21T02:41:19.948Z,7.70
2023-03-21T02:43:52.412Z,7.80
2023-03-21T02:46:24.216Z,7.80
2023-03-21T02:48:52.774Z,7.70
2023-03-21T02:51:24.153Z,7.80
2023-03-21T02:54:21.971Z,7.70
2023-03-21T02:56:43.342Z,7.70
2023-03-21T02:59:10.282Z,7.70
2023-03-21T03:01:36.932Z,7.70
2023-03-21T03:04:03.718Z,7.70
2023-03-21T03:06:56.160Z,7.70
2023-03-21T03:09:22.891Z,7.70
2023-03-21T03:11:51.302Z,7.80
2023-03-21T03:17:10.559Z,7.80
2023-03-21T03:19:50.004Z,7.80
2023-03-21T03:22:25.577Z,7.80
2023-03-21T03:24:54.960Z,7.80
2023-03-21T03:27:26.972Z,7.80
2023-03-21T03:29:53.906Z,7.80
2023-03-21T03:32:27.190Z,7.80
2023-03-21T03:34:57.895Z,7.70
2023-03-21T03:37:27.001Z,7.80
2023-03-21T03:39:53.611Z,7.80
2023-03-21T03:42:31.702Z,7.80
2023-03-21T03:44:58.467Z,7.70
2023-03-21T03:47:35.016Z,7.70
2023-03-21T03:50:09.697Z,7.70
2023-03-21T03:52:53.515Z,7.70
2023-03-21T03:55:22.508Z,7.70
2023-03-21T03:57:49.388Z,7.80
2023-03-21T04:00:17.137Z,7.80
2023-03-21T04:02:43.813Z,7.70
2023-03-21T04:05:10.728Z,7.70
2023-03-21T04:07:37.535Z,7.70
2023-03-21T04:10:05.108Z,7.70
2023-03-21T04:12:31.749Z,7.70
2023-03-21T04:15:09.589Z,7.80
2023-03-21T04:17:38.286Z,7.70
2023-03-21T04:20:12.062Z,7.70
2023-03-21T04:22:41.928Z,7.70
2023-03-21T04:25:09.190Z,7.70
2023-03-21T04:27:36.159Z,7.70
2023-03-21T04:30:03.955Z,7.70
2023-03-21T04:32:33.971Z,7.70
2023-03-21T04:35:00.948Z,7.70
2023-03-21T04:37:27.994Z,7.80
2023-03-21T04:39:54.870Z,7.70
2023-03-21T04:42:21.605Z,7.80
2023-03-21T04:44:48.951Z,7.80
2023-03-21T04:47:16.095Z,7.70
2023-03-21T04:49:45.818Z,7.70
2023-03-21T04:52:12.621Z,7.70
2023-03-21T04:54:39.300Z,7.70
2023-03-21T04:57:05.970Z,7.70
2023-03-21T04:59:32.643Z,7.70
2023-03-21T05:01:59.268Z,7.70
2023-03-21T05:04:27.415Z,7.70
2023-03-21T05:06:55.902Z,7.70
2023-03-21T05:09:22.927Z,7.70
2023-03-21T05:11:49.622Z,7.70
2023-03-21T05:14:18.191Z,7.60
2023-03-21T05:16:48.749Z,7.70
2023-03-21T05:19:17.459Z,7.70
2023-03-21T05:21:45.168Z,7.70
2023-03-21T05:24:14.232Z,7.70
2023-03-21T05:26:41.908Z,7.60
2023-03-21T05:29:08.528Z,7.60
2023-03-21T05:31:36.154Z,7.50
2023-03-21T05:34:03.340Z,7.50
2023-03-21T05:36:30.106Z,7.50
2023-03-21T05:38:56.804Z,7.50
2023-03-21T05:41:23.538Z,7.50
2023-03-21T05:43:50.249Z,7.50
2023-03-21T05:46:17.002Z,7.60
2023-03-21T05:48:43.687Z,7.60
2023-03-21T05:51:10.414Z,7.70
2023-03-21T05:53:37.025Z,7.70
2023-03-21T05:56:03.880Z,7.70
2023-03-21T05:58:30.628Z,7.80
2023-03-21T06:00:57.340Z,7.90
2023-03-21T06:03:24.289Z,7.90
2023-03-21T06:05:51.124Z,8.10
2023-03-21T06:08:17.770Z,8.10
2023-03-21T06:10:44.482Z,8.20
2023-03-21T06:13:11.176Z,8.10
2023-03-21T06:15:38.074Z,8.40
2023-03-21T06:18:04.972Z,8.40
2023-03-21T06:20:31.667Z,8.40
2023-03-21T06:22:58.393Z,8.50
2023-03-21T06:25:25.338Z,8.60
2023-03-21T06:27:51.942Z,8.70
2023-03-21T06:30:18.742Z,8.70
2023-03-21T06:32:45.453Z,8.80
2023-03-21T06:35:12.135Z,8.90
2023-03-21T06:37:38.870Z,8.80
2023-03-21T06:40:06.180Z,8.80
2023-03-21T06:42:32.960Z,8.90
2023-03-21T06:44:59.686Z,8.90
2023-03-21T06:47:29.059Z,9.00
2023-03-21T06:49:55.760Z,9.10
2023-03-21T06:52:22.404Z,9.10
2023-03-21T06:54:49.154Z,9.20
2023-03-21T06:57:16.130Z,9.30
2023-03-21T06:59:42.783Z,9.40
2023-03-21T07:02:12.369Z,9.40
2023-03-21T07:04:39.124Z,9.50
2023-03-21T07:07:05.813Z,9.70
2023-03-21T07:09:32.418Z,9.80
2023-03-21T07:11:59.041Z,10.00
2023-03-21T07:14:26.021Z,10.20
2023-03-21T07:16:55.751Z,10.30
2023-03-21T07:19:22.452Z,10.60
2023-03-21T07:21:49.037Z,10.80
2023-03-21T07:24:15.665Z,11.10
2023-03-21T07:26:42.284Z,11.20
2023-03-21T07:29:09.021Z,11.50
2023-03-21T07:31:39.998Z,11.90
2023-03-21T07:34:06.795Z,12.00
2023-03-21T07:36:33.406Z,12.60
2023-03-21T07:39:00.237Z,13.00
2023-03-21T07:41:26.865Z,13.70
2023-03-21T07:43:53.519Z,15.00
2023-03-21T07:46:20.348Z,15.50
2023-03-21T07:48:47.091Z,15.90
2023-03-21T07:51:13.773Z,16.20
2023-03-21T07:53:41.980Z,15.70
2023-03-21T07:56:08.772Z,15.90
2023-03-21T07:58:35.698Z,16.50
2023-03-21T08:01:02.463Z,16.80
2023-03-21T08:03:29.907Z,17.50
2023-03-21T08:05:56.721Z,18.20
2023-03-21T08:08:23.396Z,18.80
2023-03-21T08:10:50.106Z,19.10
2023-03-21T08:13:16.779Z,20.60
2023-03-21T08:15:43.694Z,23.10
2023-03-21T08:18:10.590Z,23.60
2023-03-21T08:20:37.608Z,23.30
2023-03-21T08:23:04.316Z,23.00
2023-03-21T08:25:31.601Z,24.00
2023-03-21T08:28:00.018Z,25.50
2023-03-21T08:30:28.224Z,27.10
2023-03-21T08:33:00.894Z,26.20
2023-03-21T08:35:28.800Z,26.50
2023-03-21T08:37:55.517Z,25.80
2023-03-21T08:40:22.260Z,25.90
2023-03-21T08:42:49.026Z,25.00
2023-03-21T08:45:16.553Z,25.30
2023-03-21T08:47:43.779Z,26.10
2023-03-21T08:50:11.879Z,25.00
2023-03-21T08:52:38.563Z,24.10
2023-03-21T08:55:05.548Z,23.00
2023-03-21T08:57:32.249Z,22.50
2023-03-21T08:59:58.936Z,21.80
2023-03-21T09:02:25.734Z,21.80
2023-03-21T09:04:54.918Z,21.20
2023-03-21T09:07:22.260Z,20.90
2023-03-21T09:10:08.237Z,22.10
2023-03-21T09:12:39.351Z,23.10
2023-03-21T09:15:06.400Z,23.60
2023-03-21T09:17:33.136Z,24.60
2023-03-21T09:20:00.622Z,26.30
2023-03-21T09:22:27.703Z,26.80
2023-03-21T09:24:54.357Z,26.70
2023-03-21T09:27:25.800Z,26.70
2023-03-21T09:29:52.652Z,28.60
2023-03-21T09:32:20.191Z,29.20
2023-03-21T09:34:48.562Z,28.20
2023-03-21T09:37:15.534Z,28.60
2023-03-21T09:39:42.979Z,29.20
2023-03-21T09:42:30.913Z,28.80
2023-03-21T09:45:08.671Z,27.70
2023-03-21T09:47:49.215Z,26.50
2023-03-21T09:50:20.405Z,26.40
2023-03-21T09:52:53.518Z,27.10
2023-03-21T09:55:26.320Z,25.60
2023-03-21T09:58:13.847Z,25.60
2023-03-21T10:00:43.360Z,27.20
2023-03-21T10:03:20.114Z,28.00
2023-03-21T10:05:48.501Z,28.00
2023-03-21T10:08:23.745Z,27.10
2023-03-21T10:10:51.613Z,25.80
2023-03-21T10:13:21.226Z,24.80
2023-03-21T10:15:48.982Z,25.60
2023-03-21T10:18:23.751Z,26.00
2023-03-21T10:20:51.320Z,25.90
2023-03-21T10:23:19.785Z,25.40
2023-03-21T10:25:51.795Z,25.00
2023-03-21T10:28:24.030Z,24.80
2023-03-21T10:30:53.004Z,24.40
2023-03-21T10:33:25.068Z,24.00
2023-03-21T10:35:53.399Z,23.60
2023-03-21T10:38:22.403Z,24.20
2023-03-21T10:40:49.139Z,24.30
2023-03-21T10:43:20.612Z,24.20
2023-03-21T10:45:48.292Z,24.90
2023-03-21T10:48:15.533Z,25.40
2023-03-21T10:50:42.834Z,25.40
2023-03-21T10:53:18.428Z,25.40
2023-03-21T10:55:47.122Z,25.70
2023-03-21T10:58:19.164Z,26.00
2023-03-21T11:00:46.482Z,26.60
2023-03-21T11:03:21.621Z,26.40
2023-03-21T11:05:48.955Z,25.70
2023-03-21T11:08:18.111Z,25.00
2023-03-21T11:11:15.425Z,24.90
2023-03-21T11:13:43.148Z,24.60
2023-03-21T11:16:19.244Z,24.40
2023-03-21T11:18:50.806Z,23.40
2023-03-21T11:21:17.840Z,22.20
2023-03-21T11:23:48.841Z,22.10
2023-03-21T11:26:23.971Z,22.50
2023-03-21T11:28:51.920Z,22.50
2023-03-21T11:31:18.808Z,22.00
2023-03-21T11:33:51.925Z,21.70
2023-03-21T11:36:18.573Z,21.60
2023-03-21T11:38:48.597Z,21.00
2023-03-21T11:41:28.390Z,20.80
2023-03-21T11:43:55.204Z,20.70
2023-03-21T11:46:26.034Z,20.80
2023-03-21T11:48:53.284Z,20.30
2023-03-21T11:51:28.184Z,20.20
2023-03-21T11:54:00.770Z,19.90
2023-03-21T11:56:29.624Z,19.80
2023-03-21T11:59:08.722Z,19.90
2023-03-21T12:01:38.471Z,20.20
2023-03-21T12:04:20.830Z,20.30
2023-03-21T12:06:47.698Z,20.30
2023-03-21T12:09:20.478Z,20.00
2023-03-21T12:12:05.599Z,20.10
2023-03-21T12:14:44.641Z,19.80
2023-03-21T12:17:17.331Z,19.20
2023-03-21T12:19:46.806Z,19.60
2023-03-21T12:22:28.822Z,19.80
2023-03-21T12:24:56.865Z,19.90
2023-03-21T12:27:26.304Z,19.90
2023-03-21T12:29:56.992Z,19.80
2023-03-21T12:32:35.689Z,19.80
2023-03-21T12:35:21.204Z,19.30
2023-03-21T12:38:08.861Z,19.40
2023-03-21T12:40:35.473Z,19.40
2023-03-21T12:43:11.309Z,19.50
2023-03-21T12:45:47.049Z,19.40
2023-03-21T12:48:17.462Z,19.40
2023-03-21T12:50:45.072Z,19.50
2023-03-21T12:53:27.134Z,19.40
2023-03-21T12:55:56.651Z,19.30
2023-03-21T12:58:24.898Z,19.10
2023-03-21T13:00:54.271Z,18.80
2023-03-21T13:03:30.620Z,18.60
2023-03-21T13:06:06.645Z,18.60
2023-03-21T13:08:37.238Z,18.50
2023-03-21T13:11:05.358Z,18.50
2023-03-21T13:13:54.910Z,18.60
2023-03-21T13:16:24.549Z,18.70
2023-03-21T13:19:05.474Z,18.80
2023-03-21T13:21:44.558Z,18.50
2023-03-21T13:24:30.268Z,18.70
2023-03-21T13:27:09.186Z,18.30
2023-03-21T13:29:53.320Z,18.10
2023-03-21T13:32:31.098Z,18.50
2023-03-21T13:35:18.085Z,18.60
2023-03-21T13:37:53.119Z,18.60
2023-03-21T13:40:22.583Z,18.70
2023-03-21T13:42:53.862Z,17.90
2023-03-21T13:45:43.684Z,17.90
2023-03-21T13:48:28.054Z,18.10
2023-03-21T13:51:01.989Z,18.10
2023-03-21T13:53:40.134Z,18.40
2023-03-21T13:56:22.341Z,18.50
2023-03-21T13:58:49.002Z,18.30
2023-03-21T14:01:30.947Z,18.30
2023-03-21T14:04:04.895Z,18.40
2023-03-21T14:06:38.136Z,18.60
2023-03-21T14:09:07.949Z,18.80
2023-03-21T14:11:36.736Z,18.80
2023-03-21T14:14:04.229Z,18.70
2023-03-21T14:16:31.437Z,18.80
2023-03-21T14:19:02.355Z,18.80
2023-03-21T14:21:35.016Z,18.80
2023-03-21T14:24:06.224Z,18.60
2023-03-21T14:26:34.469Z,18.70
2023-03-21T14:29:03.834Z,18.60
2023-03-21T14:31:32.307Z,18.70
2023-03-21T14:34:00.434Z,18.70
2023-03-21T14:36:29.598Z,18.70
2023-03-21T14:39:02.270Z,18.60
2023-03-21T14:41:30.141Z,18.40
2023-03-21T14:44:17.128Z,18.40
2023-03-21T14:46:45.111Z,18.40
2023-03-21T14:49:11.793Z,18.30
2023-03-21T14:51:41.843Z,18.30
2023-03-21T14:54:12.131Z,18.30
2023-03-21T14:56:39.337Z,18.10
2023-03-21T14:59:06.369Z,18.10
2023-03-21T15:01:37.696Z,18.00
2023-03-21T15:04:06.391Z,18.00
2023-03-21T15:06:35.564Z,18.00
2023-03-21T15:09:04.079Z,18.10
2023-03-21T15:11:34.820Z,18.20
2023-03-21T15:14:03.817Z,18.30
2023-03-21T15:16:31.454Z,18.40
2023-03-21T15:18:58.468Z,18.20
2023-03-21T15:21:34.983Z,18.30
2023-03-21T15:24:08.513Z,18.20
2023-03-21T15:26:35.476Z,17.90
2023-03-21T15:29:02.409Z,17.90
2023-03-21T15:31:30.531Z,17.80
2023-03-21T15:33:57.565Z,17.80
2023-03-21T15:36:29.751Z,17.80
2023-03-21T15:38:56.713Z,17.80
2023-03-21T15:41:23.349Z,17.80
2023-03-21T15:44:10.273Z,17.70
2023-03-21T15:46:52.483Z,17.70
2023-03-21T15:49:25.228Z,17.70
2023-03-21T15:51:54.146Z,17.80
2023-03-21T15:54:25.855Z,17.70
2023-03-21T15:56:54.803Z,17.80
2023-03-21T15:59:24.102Z,17.90
2023-03-21T16:01:51.089Z,17.90
2023-03-21T16:04:19.137Z,18.00
2023-03-21T16:06:53.537Z,17.90
2023-03-21T16:09:25.884Z,17.90
2023-03-21T16:11:54.222Z,17.80
2023-03-21T16:14:21.973Z,17.80
2023-03-21T16:16:50.010Z,17.70
2023-03-21T16:19:17.088Z,17.60
2023-03-21T16:21:43.870Z,17.50
2023-03-21T16:24:12.392Z,17.40
2023-03-21T16:26:45.221Z,17.40
2023-03-21T16:29:20.909Z,17.40
2023-03-21T16:31:49.296Z,17.30
2023-03-21T16:34:16.023Z,17.20
2023-03-21T16:36:44.002Z,17.10
2023-03-21T16:39:17.048Z,17.10
2023-03-21T16:41:43.860Z,17.00
2023-03-21T16:44:10.693Z,16.90
2023-03-21T16:46:37.719Z,16.80
2023-03-21T16:49:05.261Z,16.70
2023-03-21T16:51:33.453Z,16.70
2023-03-21T16:54:00.394Z,16.50
2023-03-21T16:56:29.443Z,16.50
2023-03-21T16:58:56.644Z,16.30
2023-03-21T17:01:27.710Z,16.10
2023-03-21T17:03:54.386Z,15.90
2023-03-21T17:06:22.628Z,15.90
2023-03-21T17:08:49.300Z,15.90
2023-03-21T17:11:17.780Z,15.70
2023-03-21T17:13:44.678Z,15.60
2023-03-21T17:16:15.422Z,15.60
2023-03-21T17:18:42.264Z,15.50
2023-03-21T17:21:19.541Z,15.30
2023-03-21T17:23:50.255Z,15.20
2023-03-21T17:26:22.052Z,15.20
2023-03-21T17:28:48.822Z,15.20
2023-03-21T17:31:22.350Z,15.10
2023-03-21T17:33:52.449Z,15.10
2023-03-21T17:36:19.168Z,15.00
2023-03-21T17:38:46.174Z,14.90
2023-03-21T17:41:13.965Z,14.90
2023-03-21T17:43:41.278Z,14.70
2023-03-21T17:46:11.414Z,14.80
2023-03-21T17:48:38.258Z,14.70
2023-03-21T17:51:05.093Z,14.70
2023-03-21T17:53:31.777Z,14.60
2023-03-21T17:55:58.501Z,14.60
2023-03-21T17:58:26.193Z,14.50
2023-03-21T18:00:52.875Z,14.50
2023-03-21T18:03:20.401Z,14.50
2023-03-21T18:05:47.011Z,14.40
2023-03-21T18:08:13.803Z,14.40
2023-03-21T18:10:41.028Z,14.30
2023-03-21T18:13:08.456Z,14.30
2023-03-21T18:15:38.013Z,14.20
2023-03-21T18:18:05.414Z,14.20
2023-03-21T18:20:51.131Z,14.10
2023-03-21T18:23:19.281Z,14.10
2023-03-21T18:25:48.399Z,14.00
2023-03-21T18:28:19.200Z,14.00
2023-03-21T18:33:40.412Z,13.90
2023-03-21T18:36:08.253Z,13.80
2023-03-21T18:38:35.656Z,13.70
2023-03-21T18:41:02.673Z,13.50
2023-03-21T18:46:17.610Z,13.40
2023-03-21T18:48:44.379Z,13.30
2023-03-21T18:51:11.626Z,13.20
2023-03-21T18:53:39.135Z,13.10
2023-03-21T18:56:09.836Z,13.00
2023-03-21T18:58:37.370Z,12.90
2023-03-21T19:01:05.118Z,12.90
2023-03-21T19:03:36.768Z,12.80
2023-03-21T19:06:05.058Z,12.70
2023-03-21T19:08:34.700Z,12.80
2023-03-21T19:11:05.952Z,12.70
2023-03-21T19:13:33.532Z,12.70
2023-03-21T19:16:02.390Z,12.70
2023-03-21T19:18:50.356Z,12.60
2023-03-21T19:21:19.993Z,12.50
2023-03-21T19:26:35.710Z,12.30
2023-03-21T19:29:02.848Z,12.40
2023-03-21T19:31:31.403Z,12.30
2023-03-21T19:33:58.133Z,12.30
2023-03-21T19:36:26.402Z,12.30
2023-03-21T19:38:53.198Z,12.30
2023-03-21T19:41:20.319Z,12.30
2023-03-21T19:43:54.289Z,12.30
2023-03-21T19:46:25.746Z,12.30
2023-03-21T19:48:57.264Z,12.20
2023-03-21T19:51:30.099Z,12.10
2023-03-21T19:54:02.726Z,12.10
2023-03-21T19:56:31.370Z,12.10
2023-03-21T19:58:58.671Z,12.10
2023-03-21T20:01:25.593Z,12.10
2023-03-21T20:03:52.400Z,12.10
2023-03-21T20:06:19.274Z,12.00
2023-03-21T20:11:33.118Z,11.90
2023-03-21T20:14:01.942Z,11.90
2023-03-21T20:16:34.555Z,11.80
2023-03-21T20:19:02.544Z,11.80
2023-03-21T20:21:40.365Z,11.60
2023-03-21T20:24:13.041Z,11.50
2023-03-21T20:26:39.765Z,11.50
2023-03-21T20:29:33.877Z,11.50
2023-03-21T20:31:53.247Z,11.50
2023-03-21T20:34:21.163Z,11.40
2023-03-21T20:36:48.386Z,11.40
2023-03-21T20:39:15.461Z,11.40
2023-03-21T20:41:42.315Z,11.40
2023-03-21T20:46:56.758Z,11.50
2023-03-21T20:49:24.328Z,11.50
2023-03-21T20:52:47.825Z,11.40
2023-03-21T20:54:37.819Z,11.40
2023-03-21T20:57:05.114Z,11.50
2023-03-21T20:59:32.028Z,11.50
2023-03-21T21:01:58.853Z,11.50
2023-03-21T21:07:21.001Z,11.50
2023-03-21T21:09:48.372Z,11.50
2023-03-21T21:12:15.607Z,11.60
2023-03-21T21:14:42.692Z,11.60
2023-03-21T21:19:56.344Z,11.50
2023-03-21T21:22:23.106Z,11.50
2023-03-21T21:24:49.890Z,11.50
2023-03-21T21:27:16.863Z,11.50
2023-03-21T21:29:43.672Z,11.50
2023-03-21T21:32:11.450Z,11.50
2023-03-21T21:34:38.291Z,11.50
2023-03-21T21:37:05.191Z,11.40
2023-03-21T21:39:35.227Z,11.40
2023-03-21T21:42:02.368Z,11.40
2023-03-21T21:44:29.180Z,11.40
2023-03-21T21:46:57.424Z,11.30
2023-03-21T21:49:24.321Z,11.30
2023-03-21T21:51:51.043Z,11.30
2023-03-21T21:54:18.292Z,11.20
2023-03-21T21:56:48.417Z,11.20
2023-03-21T21:59:18.445Z,11.10
2023-03-21T22:01:46.736Z,11.10
2023-03-21T22:04:14.501Z,11.10
2023-03-21T22:06:43.406Z,11.00
2023-03-21T22:09:10.936Z,11.00
2023-03-21T22:11:37.631Z,10.90
2023-03-21T22:14:04.459Z,10.90
2023-03-21T22:16:31.347Z,10.90
2023-03-21T22:18:58.096Z,10.80
2023-03-21T22:21:24.776Z,10.70
2023-03-21T22:23:51.408Z,10.70
2023-03-21T22:26:18.160Z,10.60
2023-03-21T22:28:44.880Z,10.60
2023-03-21T22:31:14.055Z,10.50
2023-03-21T22:33:40.891Z,10.50
2023-03-21T22:36:07.809Z,10.50
2023-03-21T22:38:34.699Z,10.40
2023-03-21T22:41:02.296Z,10.40
2023-03-21T22:43:29.361Z,10.40
2023-03-21T22:45:56.325Z,10.40
2023-03-21T22:48:23.127Z,10.30
2023-03-21T22:50:49.944Z,10.30
2023-03-21T22:53:16.698Z,10.30
2023-03-21T22:55:43.437Z,10.20
2023-03-21T22:58:10.260Z,10.30
2023-03-21T23:00:37.771Z,10.30
2023-03-21T23:03:04.615Z,10.30
2023-03-21T23:05:31.740Z,10.20
2023-03-21T23:07:58.432Z,10.20
2023-03-21T23:10:25.418Z,10.20
2023-03-21T23:12:52.091Z,10.20
2023-03-21T23:15:18.898Z,10.10
2023-03-21T23:17:45.621Z,10.00
2023-03-21T23:20:12.637Z,9.90
2023-03-21T23:22:39.666Z,9.90
2023-03-21T23:25:06.748Z,9.90
2023-03-21T23:27:35.275Z,9.80
2023-03-21T23:30:03.014Z,9.70
2023-03-21T23:32:30.987Z,9.60
2023-03-21T23:34:58.022Z,9.50
2023-03-21T23:37:25.167Z,9.40
2023-03-21T23:39:54.886Z,9.30
2023-03-21T23:42:22.237Z,9.20
2023-03-21T23:44:48.905Z,9.10
2023-03-21T23:47:16.025Z,9.00
2023-03-21T23:49:47.169Z,8.80
2023-03-21T23:52:13.875Z,8.80
2023-03-21T23:54:40.751Z,8.70
2023-03-21T23:57:07.534Z,8.60
2023-03-21T23:59:34.316Z,8.50
